Time;durP1;ratioP1;P1;durP2;ratioP2;P2;SDS_P1;SDS_P2;PMS_P1;PMS_P2;Temp;Humidity;BMP_temperature;BMP_pressure;BME280_temperature;BME280_humidity;BME280_pressure;Samples;Min_cycle;Max_cycle;Signal;HPM_P1;HPM_P2
2022/06/11 00:00:04;;;;;;;6.68;2.70;;;;;;;16.56;73.42;100497.97;4975233;28;20109;-55
2022/06/11 00:02:48;;;;;;;6.63;3.60;;;;;;;16.56;73.54;100504.97;4973774;28;20149;-55
2022/06/11 00:05:38;;;;;;;;;;;;;;;16.55;73.45;100496.22;4975425;28;20049;-55
2022/06/11 00:08:22;;;;;;;6.00;2.80;;;;;;;16.52;73.39;100496.22;4974457;28;19972;-55
2022/06/11 00:11:13;;;;;;;5.88;3.08;;;;;;;16.53;73.51;100504.97;4975207;28;20561;-56
2022/06/11 00:13:59;;;;;;;4.68;2.50;;;;;;;16.54;73.39;100498.88;4975127;28;20053;-56
2022/06/11 00:16:47;;;;;;;6.07;2.75;;;;;;;16.52;73.27;100498.00;4975028;28;20084;-57
2022/06/11 00:19:32;;;;;;;6.00;3.00;;;;;;;16.52;73.49;100500.59;4973511;28;20117;-57
2022/06/11 00:22:18;;;;;;;4.18;2.42;;;;;;;16.52;73.61;100500.59;4973941;28;20549;-56
2022/06/11 00:25:03;;;;;;;12.00;2.85;;;;;;;16.52;73.51;100504.06;4973800;28;20105;-56
2022/06/11 00:27:50;;;;;;;4.75;2.60;;;;;;;16.52;73.67;100501.47;4973395;28;20418;-55
2022/06/11 00:30:34;;;;;;;7.10;2.70;;;;;;;16.52;73.34;100490.16;4974931;28;20537;-54
2022/06/11 00:33:20;;;;;;;7.80;2.90;;;;;;;16.52;73.59;100493.63;4973744;28;20085;-55
2022/06/11 00:36:06;;;;;;;4.28;2.70;;;;;;;16.52;73.49;100492.75;4973608;28;20470;-55
2022/06/11 00:38:53;;;;;;;7.90;3.20;;;;;;;16.51;73.64;100494.47;4973764;28;20049;-55
2022/06/11 00:41:43;;;;;;;4.32;2.85;;;;;;;16.50;73.47;100492.78;4973671;28;20054;-55
2022/06/11 00:44:30;;;;;;;4.30;2.55;;;;;;;16.49;73.44;100488.41;4974521;28;20077;-55
2022/06/11 00:47:22;;;;;;;6.85;2.72;;;;;;;16.49;73.37;100488.41;4973862;28;20081;-55
2022/06/11 00:50:22;;;;;;;4.78;3.03;;;;;;;16.49;73.29;100485.78;4973896;28;20065;-55
2022/06/11 00:53:14;;;;;;;7.00;3.22;;;;;;;16.49;73.49;100495.38;4974379;28;20054;-55
2022/06/11 00:56:00;;;;;;;5.75;2.67;;;;;;;16.50;73.28;100487.53;4973687;28;20090;-54
2022/06/11 00:58:47;;;;;;;6.03;2.65;;;;;;;16.49;73.57;100479.66;4973905;28;20193;-56
2022/06/11 01:01:31;;;;;;;6.68;3.22;;;;;;;16.48;73.43;100478.81;4976513;28;20056;-57
2022/06/11 01:04:40;;;;;;;4.13;2.38;;;;;;;16.49;73.28;100479.66;4978959;28;20075;-56
2022/06/11 01:07:51;;;;;;;3.15;2.42;;;;;;;16.48;73.43;100478.81;4979051;28;20045;-58
2022/06/11 01:11:13;;;;;;;4.40;2.67;;;;;;;16.48;73.43;100468.34;4979944;28;20524;-56
2022/06/11 01:14:15;;;;;;;4.22;2.22;;;;;;;16.47;73.54;100470.94;4997546;28;20050;-56
2022/06/11 01:17:19;;;;;;;6.50;3.28;;;;;;;16.47;73.54;100468.34;4983071;28;20085;-56
2022/06/11 01:20:26;;;;;;;5.65;2.70;;;;;;;16.47;73.42;100473.56;4997474;28;20049;-57
2022/06/11 01:23:31;;;;;;;4.88;2.90;;;;;;;16.45;73.32;100470.97;4997177;28;20434;-56
2022/06/11 01:26:41;;;;;;;4.05;2.90;;;;;;;16.46;73.43;100477.06;4982670;28;20052;-57
2022/06/11 01:29:34;;;;;;;6.60;2.80;;;;;;;16.47;73.68;100486.66;4982701;28;20414;-56
2022/06/11 01:32:25;;;;;;;4.43;2.60;;;;;;;16.46;73.64;100483.19;4997058;28;20049;-56
2022/06/11 01:35:31;;;;;;;5.53;2.60;;;;;;;16.46;73.72;100482.28;4982787;28;20053;-57
2022/06/11 01:38:33;;;;;;;5.03;2.95;;;;;;;16.47;73.55;100491.88;4982355;28;20049;-56
2022/06/11 01:41:26;;;;;;;4.53;2.67;;;;;;;16.47;73.54;100481.41;4982670;28;20058;-55
2022/06/11 01:44:25;;;;;;;4.15;2.53;;;;;;;16.47;73.54;100481.41;4982257;28;20465;-55
2022/06/11 01:47:13;;;;;;;6.40;3.10;;;;;;;16.46;73.47;100482.28;4997431;28;20512;-59
2022/06/11 01:49:58;;;;;;;6.90;3.55;;;;;;;16.47;73.58;100478.81;4997326;28;20461;-57
2022/06/11 01:52:45;;;;;;;6.35;2.85;;;;;;;16.45;73.46;100476.19;4982521;28;20073;-56
2022/06/11 01:55:50;;;;;;;4.57;2.67;;;;;;;16.47;73.67;100481.41;4982061;28;20121;-58
2022/06/11 01:58:55;;;;;;;6.45;3.47;;;;;;;16.46;73.59;100482.28;4982379;28;20049;-57
2022/06/11 02:02:10;;;;;;;4.60;2.95;;;;;;;16.46;73.39;100477.06;4982174;28;20104;-57
2022/06/11 02:05:09;;;;;;;5.68;3.13;;;;;;;16.46;73.38;100479.66;4982077;28;20045;-56
2022/06/11 02:08:15;;;;;;;7.32;3.00;;;;;;;16.46;73.33;100487.53;4997102;28;20049;-55
2022/06/11 02:11:11;;;;;;;7.30;3.22;;;;;;;16.46;73.48;100490.13;4996438;28;20149;-55
2022/06/11 02:14:01;;;;;;;4.93;2.63;;;;;;;16.45;73.49;100484.03;4996588;28;20045;-56
2022/06/11 02:16:55;;;;;;;6.45;3.10;;;;;;;16.46;73.59;100484.91;4982262;28;20510;-56
2022/06/11 02:19:48;;;;;;;6.57;2.58;;;;;;;16.46;73.61;100490.13;4982219;28;20512;-56
2022/06/11 02:22:43;;;;;;;3.63;2.50;;;;;;;16.45;73.52;100484.03;4980872;28;20134;-56
2022/06/11 02:25:36;;;;;;;4.28;2.67;;;;;;;16.44;73.52;100490.16;4981971;28;20589;-56
2022/06/11 02:28:24;;;;;;;8.20;2.80;;;;;;;16.43;73.48;100481.41;4996416;28;20065;-56
2022/06/11 02:31:13;;;;;;;6.15;3.05;;;;;;;16.43;73.43;100486.66;4981298;28;20524;-56
2022/06/11 02:34:02;;;;;;;5.30;2.90;;;;;;;16.43;73.67;100486.66;4981778;28;20146;-56
2022/06/11 02:36:58;;;;;;;3.80;2.53;;;;;;;16.42;73.55;100487.56;4981644;28;20048;-56
2022/06/11 02:39:44;;;;;;;3.03;2.53;;;;;;;16.42;73.57;100487.56;4981030;28;20081;-56
2022/06/11 02:42:29;;;;;;;4.53;2.50;;;;;;;16.43;73.54;100488.41;4996206;28;20045;-56
2022/06/11 02:45:14;;;;;;;9.00;3.30;;;;;;;16.43;73.60;100488.41;4981386;28;20057;-56
2022/06/11 02:48:01;;;;;;;6.50;2.47;;;;;;;16.42;73.48;100482.31;4981097;28;20081;-56
2022/06/11 02:50:48;;;;;;;3.78;2.33;;;;;;;16.43;73.54;100480.56;4981375;28;20112;-56
2022/06/11 02:53:35;;;;;;;5.22;2.83;;;;;;;16.43;73.53;100484.03;4981566;28;20057;-56
2022/06/11 02:56:19;;;;;;;7.32;2.88;;;;;;;16.44;73.61;100487.53;4981395;28;20049;-56
2022/06/11 02:59:06;;;;;;;4.10;2.88;;;;;;;16.44;73.58;100490.16;4981692;28;20049;-56
2022/06/11 03:01:54;;;;;;;3.80;2.85;;;;;;;16.45;73.53;100489.28;4981180;28;20140;-56
2022/06/11 03:04:38;;;;;;;6.28;3.08;;;;;;;16.44;73.35;100490.16;4980830;28;20049;-56
2022/06/11 03:07:23;;;;;;;7.35;2.80;;;;;;;16.46;73.69;100497.97;4981250;28;20049;-56
2022/06/11 03:10:11;;;;;;;4.40;3.08;;;;;;;16.45;73.61;100499.75;4995841;28;20077;-56
2022/06/11 03:12:58;;;;;;;4.15;2.65;;;;;;;16.46;73.66;100498.88;4995395;28;20053;-57
2022/06/11 03:15:45;;;;;;;8.95;3.38;;;;;;;16.44;73.68;100488.38;4980963;28;20085;-55
2022/06/11 03:18:34;;;;;;;4.43;3.17;;;;;;;16.45;73.64;100497.13;4995351;28;20552;-55
2022/06/11 03:21:24;;;;;;;5.40;2.90;;;;;;;16.44;73.64;100496.25;4994940;28;20136;-55
2022/06/11 03:24:13;;;;;;;5.60;2.97;;;;;;;16.44;73.55;100498.84;4980835;28;20069;-55
2022/06/11 03:26:57;;;;;;;7.68;3.50;;;;;;;16.43;73.64;100502.34;4994873;28;20065;-55
2022/06/11 03:29:41;;;;;;;4.88;3.05;;;;;;;16.44;73.56;100495.38;4995553;28;20057;-55
2022/06/11 03:32:28;;;;;;;6.60;2.72;;;;;;;16.43;73.53;100499.72;4995255;28;20080;-54
2022/06/11 03:35:13;;;;;;;7.88;3.08;;;;;;;16.43;73.66;100494.50;4980123;28;20580;-55
2022/06/11 03:37:57;;;;;;;6.40;3.17;;;;;;;16.44;73.71;100498.00;4994904;28;20101;-56
2022/06/11 03:40:44;;;;;;;6.00;3.10;;;;;;;16.45;73.51;100510.22;4980713;28;20136;-55
2022/06/11 03:43:31;;;;;;;7.47;3.30;;;;;;;16.44;73.57;100509.31;4980601;28;20049;-55
2022/06/11 03:46:17;;;;;;;4.95;2.97;;;;;;;16.44;73.58;100511.06;4980536;28;20402;-55
2022/06/11 03:49:00;;;;;;;7.80;3.30;;;;;;;16.44;73.70;100514.56;4980516;28;20061;-55
2022/06/11 03:51:47;;;;;;;6.63;3.45;;;;;;;16.43;73.68;100515.41;4994631;28;20101;-55
2022/06/11 03:54:31;;;;;;;4.32;2.90;;;;;;;16.44;73.60;100517.16;4995088;28;20108;-55
2022/06/11 03:57:15;;;;;;;6.95;3.50;;;;;;;16.44;73.70;100521.53;4994903;28;20477;-55
2022/06/11 04:00:03;;;;;;;8.50;3.95;;;;;;;16.45;73.69;100536.38;4994556;28;20128;-55
2022/06/11 04:02:49;;;;;;;8.68;3.75;;;;;;;16.45;73.93;100528.53;4979680;28;20056;-55
2022/06/11 04:05:33;;;;;;;8.70;3.58;;;;;;;16.46;73.69;100532.00;4994656;28;20065;-55
2022/06/11 04:08:22;;;;;;;9.10;4.07;;;;;;;16.45;73.81;100528.53;4994435;28;20085;-55
2022/06/11 04:11:09;;;;;;;7.70;4.05;;;;;;;16.45;73.63;100531.13;4994611;28;20414;-55
2022/06/11 04:13:56;;;;;;;8.00;3.60;;;;;;;16.45;73.91;100525.91;4994851;28;20044;-55
2022/06/11 04:16:53;;;;;;;8.50;3.70;;;;;;;16.44;73.79;100530.25;4994388;28;20061;-55
2022/06/11 04:19:41;;;;;;;8.15;4.13;;;;;;;16.47;74.03;100541.59;4994305;28;20061;-54
2022/06/11 04:22:28;;;;;;;7.13;3.30;;;;;;;16.45;73.73;100531.13;4979708;28;20053;-55
2022/06/11 04:25:21;;;;;;;6.47;3.25;;;;;;;16.44;73.74;100547.69;4994060;28;20057;-55
2022/06/11 04:28:05;;;;;;;7.47;3.95;;;;;;;16.43;73.97;100538.97;4994338;28;20049;-57
2022/06/11 04:30:51;;;;;;;6.32;3.50;;;;;;;16.45;74.02;100546.84;4993945;28;20560;-56
2022/06/11 04:33:36;;;;;;;8.15;3.40;;;;;;;16.46;73.72;100542.47;4979727;28;20128;-55
2022/06/11 04:36:23;;;;;;;6.80;3.63;;;;;;;16.46;73.82;100542.47;4994275;28;20105;-55
2022/06/11 04:39:12;;;;;;;6.20;3.33;;;;;;;16.44;73.79;100545.94;4979507;28;20130;-55
2022/06/11 04:41:57;;;;;;;8.23;3.67;;;;;;;16.46;74.02;100550.31;4979743;28;20057;-55
2022/06/11 04:44:43;;;;;;;7.40;3.80;;;;;;;16.46;74.04;100552.91;4993858;28;20580;-55
2022/06/11 04:47:31;;;;;;;5.80;3.83;;;;;;;16.46;73.86;100547.69;4979521;28;20089;-55
2022/06/11 04:50:18;;;;;;;9.75;3.67;;;;;;;16.46;74.05;100555.53;4979504;28;20109;-55
2022/06/11 04:53:03;;;;;;;6.53;3.30;;;;;;;16.47;73.80;100554.66;4979272;28;20128;-55
2022/06/11 04:55:47;;;;;;;7.45;4.30;;;;;;;16.47;73.86;100554.66;4978944;28;20124;-55
2022/06/11 04:58:33;;;;;;;9.13;4.32;;;;;;;16.45;73.84;100552.06;4993799;28;20049;-55
2022/06/11 05:01:18;;;;;;;10.77;3.95;;;;;;;16.46;73.94;100564.28;4979179;28;20116;-55
2022/06/11 05:04:03;;;;;;;9.65;4.20;;;;;;;16.47;73.83;100567.75;4979343;28;20052;-55
2022/06/11 05:06:47;;;;;;;4.90;3.72;;;;;;;16.47;74.02;100557.28;4993835;28;20108;-54
2022/06/11 05:09:33;;;;;;;6.82;4.32;;;;;;;16.47;73.91;100557.28;4979221;28;20126;-56
2022/06/11 05:12:17;;;;;;;6.88;3.65;;;;;;;16.48;73.99;100556.41;4978622;28;20140;-54
2022/06/11 05:15:02;;;;;;;5.53;3.47;;;;;;;16.47;73.84;100555.56;4994290;28;20136;-55
2022/06/11 05:17:46;;;;;;;;;;;;;;;16.45;73.90;100559.91;4979595;28;20076;-55
2022/06/11 05:20:30;;;;;;;10.10;3.85;;;;;;;16.44;74.08;100551.16;4979259;28;19965;-55
2022/06/11 05:23:14;;;;;;;7.63;3.50;;;;;;;16.46;73.86;100555.53;4993658;28;20069;-55
2022/06/11 05:25:58;;;;;;;10.23;3.83;;;;;;;16.45;73.93;100554.69;4993660;28;20061;-55
2022/06/11 05:28:43;;;;;;;7.75;4.10;;;;;;;16.46;74.16;100569.50;4993997;28;20405;-55
2022/06/11 05:31:27;;;;;;;11.65;3.50;;;;;;;16.47;73.97;100559.91;4993847;28;20045;-55
2022/06/11 05:34:11;;;;;;;7.88;3.90;;;;;;;16.47;73.95;100557.28;4993741;28;20071;-55
2022/06/11 05:36:56;;;;;;;7.07;3.30;;;;;;;16.47;73.95;100566.03;4994245;28;20045;-55
2022/06/11 05:39:43;;;;;;;4.68;3.83;;;;;;;16.48;73.93;100562.53;4979212;28;20053;-54
2022/06/11 05:42:27;;;;;;;7.25;3.97;;;;;;;16.48;73.87;100551.19;4978953;28;20064;-55
2022/06/11 05:45:11;;;;;;;7.63;3.58;;;;;;;16.49;74.14;100560.78;4993617;28;20097;-55
2022/06/11 05:47:56;;;;;;;8.82;3.67;;;;;;;16.48;74.00;100565.16;4993643;28;20137;-56
2022/06/11 05:50:50;;;;;;;8.68;3.35;;;;;;;16.48;74.07;100559.91;4978792;28;20100;-55
2022/06/11 05:53:37;;;;;;;5.53;3.70;;;;;;;16.49;74.01;100566.00;4978885;28;20522;-55
2022/06/11 05:56:22;;;;;;;7.30;3.63;;;;;;;16.50;74.04;100575.59;4979535;28;20048;-55
2022/06/11 05:59:11;;;;;;;7.40;4.13;;;;;;;16.49;74.07;100569.50;4982317;28;20096;-55
2022/06/11 06:01:59;;;;;;;8.15;4.07;;;;;;;16.50;74.08;100570.38;4981948;28;20057;-57
2022/06/11 06:04:43;;;;;;;7.30;3.95;;;;;;;16.51;74.00;100583.44;4982872;28;20398;-57
2022/06/11 06:07:30;;;;;;;5.35;4.30;;;;;;;16.50;73.93;100578.22;4996959;28;20086;-57
2022/06/11 06:10:17;;;;;;;10.90;5.75;;;;;;;16.50;74.19;100589.56;4981943;28;20081;-57
2022/06/11 06:13:01;;;;;;;6.78;5.93;;;;;;;16.51;74.32;100588.66;4996831;28;20188;-55
2022/06/11 06:15:52;;;;;;;9.52;7.45;;;;;;;16.48;74.08;100591.31;4982082;28;20049;-55
2022/06/11 06:18:42;;;;;;;8.13;7.15;;;;;;;16.49;74.34;100598.28;4981722;28;20137;-55
2022/06/11 06:21:31;;;;;;;10.30;6.00;;;;;;;16.50;74.13;100588.69;4996693;28;20065;-54
2022/06/11 06:24:15;;;;;;;7.13;5.70;;;;;;;16.51;73.95;100588.66;4982124;28;20050;-55
2022/06/11 06:27:05;;;;;;;10.90;7.15;;;;;;;16.50;74.15;100600.03;4996435;28;20053;-55
2022/06/11 06:29:50;;;;;;;6.80;5.47;;;;;;;16.51;74.20;100599.13;4996310;28;20402;-55
2022/06/11 06:32:37;;;;;;;10.35;5.78;;;;;;;16.52;74.05;100600.03;4996428;28;20041;-55
2022/06/11 06:35:21;;;;;;;8.20;5.93;;;;;;;16.51;74.11;100606.13;4981596;28;20058;-55
2022/06/11 06:38:08;;;;;;;8.52;5.88;;;;;;;16.50;74.02;100615.72;4996080;28;20085;-55
2022/06/11 06:40:53;;;;;;;9.43;6.15;;;;;;;16.49;73.97;100606.13;4981468;28;20112;-54
2022/06/11 06:43:38;;;;;;;14.30;7.60;;;;;;;16.50;74.05;100607.88;4996200;28;20061;-56
2022/06/11 06:46:22;;;;;;;9.20;7.18;;;;;;;16.51;74.10;100612.22;4981144;28;20093;-56
2022/06/11 06:49:08;;;;;;;12.10;7.35;;;;;;;16.52;74.24;100615.72;4996013;28;20049;-56
2022/06/11 06:51:53;;;;;;;17.20;8.02;;;;;;;16.51;74.10;100616.59;4996065;28;20053;-55
2022/06/11 06:54:39;;;;;;;;;;;;;;;16.51;73.89;100619.22;4996170;28;20406;-55
2022/06/11 06:57:23;;;;;;;8.70;5.63;;;;;;;16.48;74.23;100617.47;4981721;28;20012;-55
2022/06/11 07:00:11;;;;;;;22.42;6.47;;;;;;;16.49;74.13;100606.13;4996041;28;20440;-55
2022/06/11 07:02:57;;;;;;;10.55;6.13;;;;;;;16.49;74.12;100616.59;4981025;28;20478;-55
2022/06/11 07:05:43;;;;;;;13.43;6.80;;;;;;;16.50;74.21;100607.00;4995914;28;20463;-55
2022/06/11 07:08:27;;;;;;;11.63;6.32;;;;;;;16.50;74.04;100607.00;4979964;28;20053;-55
2022/06/11 07:11:11;;;;;;;10.40;6.20;;;;;;;16.51;74.06;100611.34;4995818;28;20513;-56
2022/06/11 07:13:58;;;;;;;12.38;6.00;;;;;;;16.50;73.99;100607.88;4995743;28;20053;-55
2022/06/11 07:16:47;;;;;;;10.00;5.65;;;;;;;16.48;74.01;100609.63;4980993;28;20050;-55
2022/06/11 07:19:39;;;;;;;7.25;4.95;;;;;;;16.50;74.01;100618.34;4980898;28;20054;-55
2022/06/11 07:22:32;;;;;;;7.60;4.75;;;;;;;16.50;74.12;100607.00;4980878;28;20052;-55
2022/06/11 07:25:19;;;;;;;6.78;4.90;;;;;;;16.50;74.26;100613.13;4995052;28;20092;-55
2022/06/11 07:28:14;;;;;;;7.15;4.90;;;;;;;16.50;74.05;100620.97;4980906;28;20101;-57
2022/06/11 07:31:00;;;;;;;10.68;5.00;;;;;;;16.50;74.19;100613.13;4980574;28;20058;-57
2022/06/11 07:33:44;;;;;;;8.25;5.10;;;;;;;16.51;73.82;100612.22;4980776;28;20605;-55
2022/06/11 07:36:32;;;;;;;9.30;4.93;;;;;;;16.52;73.87;100613.09;4980267;28;20081;-55
2022/06/11 07:39:16;;;;;;;6.55;4.90;;;;;;;16.52;74.03;100619.19;4980577;28;20046;-55
2022/06/11 07:42:03;;;;;;;8.68;4.70;;;;;;;16.55;74.04;100615.72;4995239;28;20048;-54
2022/06/11 07:44:47;;;;;;;10.43;4.45;;;;;;;16.54;73.96;100617.44;4995277;28;20089;-57
2022/06/11 07:50:40;;;;;;;8.70;4.82;;;;;;;16.56;74.00;100626.19;4994438;28;20040;-56
2022/06/11 07:53:26;;;;;;;8.02;4.85;;;;;;;16.57;74.13;100621.84;4979990;28;20046;-55
2022/06/11 07:56:10;;;;;;;7.07;4.15;;;;;;;16.59;74.04;100623.56;4980435;28;20116;-55
2022/06/11 07:58:59;;;;;;;9.18;5.18;;;;;;;16.59;74.24;100622.69;4994421;28;20068;-55
2022/06/11 08:01:43;;;;;;;9.70;4.20;;;;;;;16.60;74.13;100621.81;4980088;28;20057;-55
2022/06/11 08:04:27;;;;;;;9.88;3.92;;;;;;;16.62;74.06;100621.84;4994894;28;20052;-55
2022/06/11 08:07:11;;;;;;;7.32;3.80;;;;;;;16.62;74.07;100627.06;4994427;28;20520;-55
2022/06/11 08:09:57;;;;;;;7.70;3.90;;;;;;;16.63;74.00;100626.19;4994359;28;20045;-56
2022/06/11 08:12:41;;;;;;;5.53;3.88;;;;;;;16.63;74.01;100628.81;4994544;28;20152;-56
2022/06/11 08:15:26;;;;;;;8.25;3.88;;;;;;;16.64;74.16;100630.56;4994180;28;20104;-55
2022/06/11 08:18:10;;;;;;;;;;;;;;;16.64;74.17;100627.94;4994353;28;20088;-55
2022/06/11 08:20:54;;;;;;;5.80;3.72;;;;;;;16.63;74.18;100624.44;4994553;28;19920;-56
2022/06/11 08:23:39;;;;;;;6.10;3.40;;;;;;;16.64;74.11;100623.56;4994345;28;20093;-57
2022/06/11 08:26:34;;;;;;;5.57;3.67;;;;;;;16.65;74.05;100624.47;4994446;28;20057;-55
2022/06/11 08:29:19;;;;;;;10.43;3.95;;;;;;;16.65;73.84;100625.31;4994042;28;20041;-55
2022/06/11 08:32:05;;;;;;;11.90;4.32;;;;;;;16.66;74.13;100629.69;4994194;28;20512;-55
2022/06/11 08:34:52;;;;;;;5.53;3.67;;;;;;;16.65;74.05;100627.06;4994288;28;20564;-55
2022/06/11 08:37:36;;;;;;;7.28;3.90;;;;;;;16.66;74.29;100629.69;4994384;28;20057;-55
2022/06/11 08:40:38;;;;;;;;;;;;;;;16.66;74.24;100634.06;4994693;28;20125;-55
2022/06/11 08:43:38;;;;;;;8.18;4.25;;;;;;;16.66;74.15;100631.44;4979247;28;19968;-55
2022/06/11 08:46:29;;;;;;;6.13;3.60;;;;;;;16.66;74.20;100634.91;4979364;28;20057;-57
2022/06/11 08:49:39;;;;;;;6.15;4.05;;;;;;;16.66;74.12;100639.28;4979360;28;20045;-55
2022/06/11 08:52:29;;;;;;;9.10;4.55;;;;;;;16.67;74.19;100641.91;4993081;28;20085;-55
2022/06/11 08:55:13;;;;;;;8.68;3.83;;;;;;;16.69;74.16;100642.78;4979685;28;20577;-55
2022/06/11 08:58:31;;;;;;;6.78;3.50;;;;;;;16.70;74.23;100647.13;4979078;28;20053;-55
2022/06/11 09:01:15;;;;;;;7.25;3.85;;;;;;;16.70;74.10;100643.63;4979620;28;20061;-55
2022/06/11 09:04:26;;;;;;;5.45;3.50;;;;;;;16.70;74.20;100647.13;4993962;28;20049;-55
2022/06/11 09:07:28;;;;;;;7.57;3.65;;;;;;;16.70;74.06;100634.03;4993647;28;20097;-55
2022/06/11 09:10:24;;;;;;;4.53;3.55;;;;;;;16.71;74.00;100630.56;4979419;28;20544;-56
2022/06/11 09:13:27;;;;;;;7.85;3.97;;;;;;;16.73;73.98;100631.44;4993869;28;20118;-56
2022/06/11 09:16:24;;;;;;;6.25;3.65;;;;;;;16.73;73.92;100641.03;4979391;28;20458;-57
2022/06/11 09:19:26;;;;;;;7.05;4.03;;;;;;;16.74;74.23;100642.75;4979107;28;20532;-55
2022/06/11 09:22:35;;;;;;;6.40;3.53;;;;;;;16.74;74.26;100632.28;4993712;28;20170;-54
2022/06/11 09:25:40;;;;;;;8.20;3.63;;;;;;;16.77;74.32;100637.53;4994369;28;20077;-55
2022/06/11 09:28:42;;;;;;;8.73;4.25;;;;;;;16.78;73.92;100634.03;4979182;28;20461;-55
2022/06/11 09:32:06;;;;;;;5.90;3.40;;;;;;;16.79;73.93;100641.03;4979599;28;20525;-55
2022/06/11 09:35:00;;;;;;;19.15;4.03;;;;;;;16.79;73.95;100648.88;4948083;28;20481;-55
2022/06/11 09:38:20;;;;;;;7.00;3.75;;;;;;;16.81;74.08;100652.38;4997162;28;20461;-55
2022/06/11 09:41:34;;;;;;;8.88;3.80;;;;;;;16.83;73.94;100647.97;4997197;28;20057;-55
2022/06/11 09:44:37;;;;;;;6.63;3.33;;;;;;;16.84;73.96;100654.13;4972195;28;20057;-55
2022/06/11 09:47:24;;;;;;;7.13;3.25;;;;;;;16.85;73.83;100650.63;4982747;28;20517;-56
2022/06/11 09:50:45;;;;;;;7.20;3.63;;;;;;;16.87;73.74;100647.13;4997203;28;20105;-56
2022/06/11 09:53:41;;;;;;;9.02;3.63;;;;;;;16.89;73.74;100645.38;4996945;28;20069;-55
2022/06/11 09:57:04;;;;;;;6.60;3.53;;;;;;;16.89;73.93;100648.00;4982685;28;20512;-56
2022/06/11 09:59:54;;;;;;;6.55;4.03;;;;;;;16.91;73.88;100647.97;4979501;28;20057;-55
2022/06/11 10:03:01;;;;;;;9.00;3.55;;;;;;;16.93;73.94;100641.00;4996978;28;20061;-56
2022/06/11 10:05:55;;;;;;;7.55;2.80;;;;;;;16.92;73.78;100641.88;4982038;28;20105;-56
2022/06/11 10:09:03;;;;;;;8.43;3.55;;;;;;;16.95;73.72;100646.28;4981946;28;20528;-56
2022/06/11 10:12:07;;;;;;;9.48;3.45;;;;;;;16.96;73.62;100645.41;4996607;28;20100;-56
2022/06/11 10:15:10;;;;;;;7.22;3.05;;;;;;;16.97;73.68;100649.78;4981618;28;20100;-56
2022/06/11 10:18:00;;;;;;;7.88;3.20;;;;;;;16.97;73.85;100649.78;4996725;28;20045;-56
2022/06/11 10:20:48;;;;;;;9.32;3.70;;;;;;;16.98;73.50;100641.03;4996620;28;20073;-56
2022/06/11 10:23:49;;;;;;;9.00;3.50;;;;;;;17.00;73.60;100641.91;4982139;28;20146;-57
2022/06/11 10:26:42;;;;;;;7.80;3.53;;;;;;;17.01;73.53;100636.69;4982122;28;20053;-57
2022/06/11 10:29:36;;;;;;;4.68;3.38;;;;;;;17.03;73.65;100639.28;4996134;28;20548;-57
2022/06/11 10:32:27;;;;;;;;;;;;;;;17.03;73.42;100634.94;4982209;28;20097;-55
2022/06/11 10:35:11;;;;;;;9.13;3.67;;;;;;;17.03;73.57;100632.31;4981699;28;19924;-57
2022/06/11 10:38:23;;;;;;;6.00;2.72;;;;;;;17.05;73.72;100632.31;4996623;28;20505;-56
2022/06/11 10:41:19;;;;;;;8.90;3.00;;;;;;;17.07;73.46;100638.41;4995990;28;20079;-56
2022/06/11 10:44:15;;;;;;;7.50;3.40;;;;;;;17.11;73.36;100629.69;4980750;28;20509;-56
2022/06/11 10:47:00;;;;;;;6.28;3.85;;;;;;;17.11;73.86;100632.31;4981671;28;20579;-57
2022/06/11 10:49:46;;;;;;;7.15;3.28;;;;;;;17.14;73.79;100628.81;4996206;28;20466;-56
2022/06/11 10:52:42;;;;;;;5.25;2.97;;;;;;;17.17;73.47;100627.03;4995523;28;20049;-56
2022/06/11 10:55:32;;;;;;;9.45;4.32;;;;;;;17.18;73.58;100617.44;4981057;28;20528;-56
2022/06/11 10:58:41;;;;;;;6.47;3.55;;;;;;;17.20;73.60;100629.66;4981390;28;20081;-57
2022/06/11 11:01:28;;;;;;;9.10;3.75;;;;;;;17.19;73.52;100629.69;4995586;28;20093;-57
2022/06/11 11:04:27;;;;;;;5.45;3.08;;;;;;;17.22;73.45;100623.56;4996012;28;20080;-56
2022/06/11 11:07:19;;;;;;;6.10;3.42;;;;;;;17.24;73.57;100627.03;4980931;28;20112;-55
2022/06/11 11:10:05;;;;;;;5.25;3.42;;;;;;;17.25;73.61;100626.16;4981000;28;20049;-55
2022/06/11 11:12:52;;;;;;;6.60;3.75;;;;;;;17.25;73.47;100618.31;4980581;28;20077;-55
2022/06/11 11:15:44;;;;;;;7.28;3.90;;;;;;;17.26;73.51;100626.16;4980879;28;20049;-55
2022/06/11 11:18:39;;;;;;;6.00;3.38;;;;;;;17.25;73.29;100618.31;4980973;28;20158;-56
2022/06/11 11:21:30;;;;;;;10.18;3.95;;;;;;;17.26;73.27;100613.06;4980913;28;20053;-54
2022/06/11 11:24:20;;;;;;;5.70;3.25;;;;;;;17.27;73.62;100611.31;4980977;28;20136;-55
2022/06/11 11:27:15;;;;;;;9.30;3.85;;;;;;;17.27;73.33;100611.31;4980841;28;20097;-55
2022/06/11 11:30:22;;;;;;;;;;;;;;;17.26;73.42;100609.59;4980729;28;20053;-55
2022/06/11 11:33:34;;;;;;;6.35;3.58;;;;;;;17.26;73.12;100610.44;4994496;28;20380;-57
2022/06/11 11:36:21;;;;;;;4.85;3.38;;;;;;;17.27;73.29;100617.41;4995031;28;20088;-57
2022/06/11 11:39:08;;;;;;;6.82;3.67;;;;;;;17.27;73.22;100606.09;4980227;28;20453;-56
2022/06/11 11:41:52;;;;;;;8.18;3.80;;;;;;;17.28;73.30;100616.53;4995047;28;20081;-55
2022/06/11 11:44:50;;;;;;;5.25;3.10;;;;;;;17.30;73.23;100611.28;4994985;28;20418;-55
2022/06/11 11:47:37;;;;;;;5.53;3.35;;;;;;;17.29;73.20;100607.81;4980308;28;20414;-55
2022/06/11 11:50:30;;;;;;;8.23;3.38;;;;;;;17.32;73.36;100601.69;4980388;28;20081;-55
2022/06/11 11:53:25;;;;;;;6.13;3.60;;;;;;;17.33;73.27;100609.56;4980123;28;20053;-55
2022/06/11 11:56:24;;;;;;;4.60;3.22;;;;;;;17.34;73.27;100608.69;4979855;28;20520;-56
2022/06/11 11:59:14;;;;;;;6.55;3.35;;;;;;;17.34;73.34;100608.69;4994700;28;20044;-55
2022/06/11 12:02:16;;;;;;;8.60;4.15;;;;;;;17.35;73.18;100602.56;4979998;28;20056;-56
2022/06/11 12:05:15;;;;;;;6.72;3.10;;;;;;;17.38;73.39;100603.41;4994475;28;20402;-55
2022/06/11 12:08:00;;;;;;;5.53;3.10;;;;;;;17.37;73.29;100602.56;4994507;28;20052;-55
2022/06/11 12:10:50;;;;;;;8.38;3.30;;;;;;;17.39;73.21;100602.53;4979959;28;20505;-55
2022/06/11 12:13:58;;;;;;;9.50;3.08;;;;;;;17.40;73.27;100605.16;4994426;28;20049;-55
2022/06/11 12:16:50;;;;;;;4.38;2.85;;;;;;;17.40;73.09;100597.31;4980027;28;20053;-56
2022/06/11 12:19:35;;;;;;;4.70;2.90;;;;;;;17.40;73.28;100594.69;4994571;28;20072;-55
2022/06/11 12:22:43;;;;;;;6.13;3.28;;;;;;;17.42;73.22;100594.66;4979660;28;20053;-55
2022/06/11 12:25:54;;;;;;;5.95;3.13;;;;;;;17.42;72.91;100592.06;4979716;28;20045;-55
2022/06/11 12:29:05;;;;;;;7.50;3.72;;;;;;;17.43;73.27;100572.84;4994279;28;20120;-56
2022/06/11 12:31:50;;;;;;;5.88;3.13;;;;;;;17.43;73.10;100584.22;4994142;28;20045;-57
2022/06/11 12:34:35;;;;;;;7.43;3.15;;;;;;;17.43;73.09;100575.47;4979600;28;20045;-57
2022/06/11 12:38:15;;;;;;;5.90;2.83;;;;;;;17.46;73.36;100580.69;4979417;28;20466;-59
2022/06/11 12:41:11;;;;;;;8.98;3.40;;;;;;;17.46;73.23;100581.53;4880920;28;20547;-58
2022/06/11 12:44:29;;;;;;;7.82;2.85;;;;;;;17.47;73.18;100582.44;4979735;28;20045;-57
2022/06/11 12:47:13;;;;;;;3.95;2.90;;;;;;;17.47;73.12;100579.81;4994023;28;20101;-56
2022/06/11 12:50:19;;;;;;;9.00;3.25;;;;;;;17.47;73.27;100582.44;4994380;28;20133;-58
2022/06/11 12:53:16;;;;;;;8.35;3.15;;;;;;;17.49;73.18;100585.94;4979150;28;20041;-57
2022/06/11 12:56:18;;;;;;;8.23;3.08;;;;;;;17.50;73.27;100585.06;4993642;28;20528;-56
2022/06/11 12:59:19;;;;;;;7.80;3.10;;;;;;;17.52;73.04;100585.03;4993721;28;20516;-56
2022/06/11 13:02:22;;;;;;;5.20;3.08;;;;;;;17.54;72.99;100589.38;4979406;28;20062;-56
2022/06/11 13:05:31;;;;;;;5.47;3.03;;;;;;;17.54;73.08;100580.66;4979240;28;20110;-56
2022/06/11 13:08:24;;;;;;;5.43;2.90;;;;;;;17.54;73.13;100575.41;4983048;28;20456;-56
2022/06/11 13:11:25;;;;;;;6.85;3.28;;;;;;;17.55;73.05;100578.03;4997458;28;20581;-56
2022/06/11 13:14:17;;;;;;;4.38;2.65;;;;;;;17.56;73.05;100578.91;4983308;28;20112;-56
2022/06/11 13:17:45;;;;;;;7.40;3.63;;;;;;;17.58;73.26;100580.63;4982902;28;20120;-56
2022/06/11 13:20:45;;;;;;;5.07;2.78;;;;;;;17.60;73.23;100586.75;4900108;29;20108;-56
2022/06/11 13:23:47;;;;;;;6.00;3.13;;;;;;;17.60;73.22;100586.75;4997661;28;20053;-56